Time,TemperatureF,DewpointF,PressureIn,WindDirection,WindDirectionDegrees,WindSpeedMPH,WindSpeedGustMPH,Humidity,HourlyPrecipIn,Conditions,Clouds,dailyrainin,SolarRadiationWatts/m^2,SoftwareType,DateUTC
2013-10-30 00:04:00,32.6,16.9,30.13,South,189,4.0,-999.0,52,0.00,,,0.00,0,WeatherHawk,2013-10-30 07:04:00,
2013-10-30 00:10:00,33.4,17.7,30.13,South,186,4.0,-999.0,52,0.00,,,0.00,0,WeatherHawk,2013-10-30 07:10:00,
2013-10-30 00:14:00,32.5,19.0,30.13,North,2,0.0,-999.0,57,0.00,,,0.00,1,WeatherHawk,2013-10-30 07:14:00,
2013-10-30 00:19:00,31.3,20.2,30.13,North,2,0.0,-999.0,63,0.00,,,0.00,0,WeatherHawk,2013-10-30 07:19:00,
2013-10-30 00:25:00,31.8,21.4,30.13,SSE,165,0.0,-999.0,65,0.00,,,0.00,0,WeatherHawk,2013-10-30 07:25:00,
2013-10-30 00:34:00,32.3,23.6,30.13,SSE,151,0.0,-999.0,70,0.00,,,0.00,0,WeatherHawk,2013-10-30 07:34:00,
2013-10-30 00:39:00,32.2,21.4,30.14,SSE,151,0.0,-999.0,64,0.00,,,0.00,0,WeatherHawk,2013-10-30 07:39:00,
2013-10-30 00:44:00,31.4,19.9,30.14,SSE,151,0.0,-999.0,62,0.00,,,0.00,0,WeatherHawk,2013-10-30 07:44:00,
2013-10-30 00:50:00,31.7,20.6,30.13,SSE,151,0.0,-999.0,63,0.00,,,0.00,0,WeatherHawk,2013-10-30 07:50:00,
2013-10-30 00:54:00,30.8,20.5,30.13,SSE,151,0.0,-999.0,65,0.00,,,0.00,0,WeatherHawk,2013-10-30 07:54:00,
2013-10-30 00:59:00,32.2,22.1,30.13,SSE,151,0.0,-999.0,66,0.00,,,0.00,0,WeatherHawk,2013-10-30 07:59:00,
2013-10-30 01:04:00,31.0,21.7,30.14,SSE,151,0.0,-999.0,68,0.00,,,0.00,0,WeatherHawk,2013-10-30 08:04:00,
2013-10-30 01:09:00,31.5,21.8,30.14,SSE,151,0.0,-999.0,67,0.00,,,0.00,0,WeatherHawk,2013-10-30 08:09:00,
2013-10-30 01:14:00,32.0,21.6,30.14,SE,127,2.0,-999.0,65,0.00,,,0.00,0,WeatherHawk,2013-10-30 08:14:00,
2013-10-30 01:19:00,32.0,20.1,30.14,SE,128,0.0,-999.0,61,0.00,,,0.00,0,WeatherHawk,2013-10-30 08:19:00,
2013-10-30 01:24:00,30.8,18.2,30.14,SSE,168,1.0,-999.0,59,0.00,,,0.00,0,WeatherHawk,2013-10-30 08:24:00,
2013-10-30 01:30:00,31.2,20.1,30.14,SSE,160,0.0,-999.0,63,0.00,,,0.00,0,WeatherHawk,2013-10-30 08:30:00,
2013-10-30 01:34:00,31.2,18.2,30.14,SE,144,2.0,-999.0,58,0.00,,,0.00,0,WeatherHawk,2013-10-30 08:34:00,
2013-10-30 01:39:00,32.1,18.6,30.14,SSE,156,4.0,-999.0,57,0.00,,,0.00,0,WeatherHawk,2013-10-30 08:39:00,
2013-10-30 01:44:00,32.0,17.3,30.14,SSW,208,3.0,-999.0,54,0.00,,,0.00,0,WeatherHawk,2013-10-30 08:44:00,
2013-10-30 01:50:00,30.0,17.4,30.15,West,265,0.0,-999.0,59,0.00,,,0.00,0,WeatherHawk,2013-10-30 08:50:00,
2013-10-30 01:54:00,30.6,21.0,30.14,South,182,0.0,-999.0,67,0.00,,,0.00,0,WeatherHawk,2013-10-30 08:54:00,
2013-10-30 01:59:00,30.8,22.2,30.15,South,182,0.0,-999.0,70,0.00,,,0.00,0,WeatherHawk,2013-10-30 08:59:00,
2013-10-30 02:04:00,30.5,23.5,30.15,WSW,252,1.0,-999.0,75,0.00,,,0.00,0,WeatherHawk,2013-10-30 09:04:00,
2013-10-30 02:09:00,29.2,22.6,30.15,WSW,252,0.0,-999.0,76,0.00,,,0.00,1,WeatherHawk,2013-10-30 09:09:00,
2013-10-30 02:14:00,30.2,24.2,30.15,SSE,151,2.0,-999.0,78,0.00,,,0.00,0,WeatherHawk,2013-10-30 09:14:00,
2013-10-30 02:19:00,30.8,22.2,30.15,SW,228,0.0,-999.0,70,0.00,,,0.00,0,WeatherHawk,2013-10-30 09:19:00,
2013-10-30 02:24:00,31.7,20.2,30.16,SW,223,0.0,-999.0,62,0.00,,,0.00,0,WeatherHawk,2013-10-30 09:24:00,
2013-10-30 02:29:00,30.3,21.0,30.15,WSW,243,0.0,-999.0,68,0.00,,,0.00,0,WeatherHawk,2013-10-30 09:29:00,
2013-10-30 02:34:00,30.4,21.8,30.15,SSW,206,0.0,-999.0,70,0.00,,,0.00,0,WeatherHawk,2013-10-30 09:34:00,
2013-10-30 02:40:00,29.9,20.7,30.16,WSW,237,0.0,-999.0,68,0.00,,,0.00,0,WeatherHawk,2013-10-30 09:40:00,
2013-10-30 02:45:00,30.1,22.2,30.15,SSW,213,0.0,-999.0,72,0.00,,,0.00,0,WeatherHawk,2013-10-30 09:45:00,
2013-10-30 02:49:00,29.8,22.5,30.15,SSW,203,0.0,-999.0,74,0.00,,,0.00,0,WeatherHawk,2013-10-30 09:49:00,
2013-10-30 02:54:00,28.8,20.3,30.15,West,281,0.0,-999.0,70,0.00,,,0.00,1,WeatherHawk,2013-10-30 09:54:00,
2013-10-30 03:00:00,29.6,23.3,30.16,West,281,0.0,-999.0,77,0.00,,,0.00,0,WeatherHawk,2013-10-30 10:00:00,
2013-10-30 03:04:00,30.2,25.1,30.16,WSW,238,0.0,-999.0,81,0.00,,,0.00,0,WeatherHawk,2013-10-30 10:04:00,
2013-10-30 03:09:00,29.9,25.1,30.16,South,169,0.0,-999.0,82,0.00,,,0.00,0,WeatherHawk,2013-10-30 10:09:00,
2013-10-30 03:14:00,29.1,24.6,30.16,South,169,0.0,-999.0,83,0.00,,,0.00,0,WeatherHawk,2013-10-30 10:14:00,
2013-10-30 03:19:00,29.7,24.9,30.15,South,169,0.0,-999.0,82,0.00,,,0.00,0,WeatherHawk,2013-10-30 10:19:00,
2013-10-30 03:24:00,29.1,24.3,30.15,South,173,0.0,-999.0,82,0.00,,,0.00,0,WeatherHawk,2013-10-30 10:24:00,
2013-10-30 03:30:00,30.1,25.3,30.15,North,0,2.0,-999.0,82,0.00,,,0.00,0,WeatherHawk,2013-10-30 10:30:00,
2013-10-30 03:34:00,29.7,24.6,30.15,North,350,0.0,-999.0,81,0.00,,,0.00,0,WeatherHawk,2013-10-30 10:34:00,
2013-10-30 03:39:00,28.9,24.7,30.15,South,169,1.0,-999.0,84,0.00,,,0.00,0,WeatherHawk,2013-10-30 10:39:00,
2013-10-30 03:44:00,28.9,24.9,30.15,South,170,0.0,-999.0,85,0.00,,,0.00,0,WeatherHawk,2013-10-30 10:44:00,
2013-10-30 03:50:00,29.7,25.7,30.15,South,170,0.0,-999.0,85,0.00,,,0.00,0,WeatherHawk,2013-10-30 10:50:00,
2013-10-30 03:55:00,28.8,24.6,30.15,SSE,165,1.0,-999.0,84,0.00,,,0.00,0,WeatherHawk,2013-10-30 10:55:00,
2013-10-30 03:59:00,29.3,24.8,30.15,SSE,165,2.0,-999.0,83,0.00,,,0.00,0,WeatherHawk,2013-10-30 10:59:00,
2013-10-30 04:04:00,29.1,23.7,30.15,SSE,160,0.0,-999.0,80,0.00,,,0.00,0,WeatherHawk,2013-10-30 11:04:00,
2013-10-30 04:10:00,28.1,22.1,30.15,SE,130,0.0,-999.0,78,0.00,,,0.00,0,WeatherHawk,2013-10-30 11:10:00,
2013-10-30 04:14:00,29.6,24.8,30.15,SE,130,0.0,-999.0,82,0.00,,,0.00,0,WeatherHawk,2013-10-30 11:14:00,
2013-10-30 04:20:00,28.8,23.5,30.15,SSE,147,0.0,-999.0,80,0.00,,,0.00,0,WeatherHawk,2013-10-30 11:20:00,
2013-10-30 04:24:00,29.2,23.9,30.15,SSE,147,0.0,-999.0,80,0.00,,,0.00,0,WeatherHawk,2013-10-30 11:24:00,
2013-10-30 04:30:00,28.8,24.3,30.15,SSE,147,0.0,-999.0,83,0.00,,,0.00,0,WeatherHawk,2013-10-30 11:30:00,
2013-10-30 04:34:00,28.5,23.8,30.15,SSE,147,0.0,-999.0,82,0.00,,,0.00,0,WeatherHawk,2013-10-30 11:34:00,
2013-10-30 04:40:00,28.1,23.7,30.15,South,184,0.0,-999.0,83,0.00,,,0.00,0,WeatherHawk,2013-10-30 11:40:00,
2013-10-30 04:44:00,29.0,25.1,30.16,West,280,0.0,-999.0,85,0.00,,,0.00,0,WeatherHawk,2013-10-30 11:44:00,
2013-10-30 04:49:00,28.2,25.1,30.15,SW,227,0.0,-999.0,88,0.00,,,0.00,0,WeatherHawk,2013-10-30 11:49:00,
2013-10-30 04:54:00,28.0,25.4,30.15,ESE,102,0.0,-999.0,90,0.00,,,0.00,0,WeatherHawk,2013-10-30 11:54:00,
2013-10-30 04:59:00,29.3,26.5,30.16,West,281,0.0,-999.0,89,0.00,,,0.00,0,WeatherHawk,2013-10-30 11:59:00,
2013-10-30 05:05:00,28.1,24.7,30.16,WSW,239,0.0,-999.0,87,0.00,,,0.00,1,WeatherHawk,2013-10-30 12:05:00,
2013-10-30 05:09:00,28.6,23.8,30.16,WSW,243,0.0,-999.0,82,0.00,,,0.00,0,WeatherHawk,2013-10-30 12:09:00,
2013-10-30 05:15:00,29.0,24.2,30.16,South,181,0.0,-999.0,82,0.00,,,0.00,0,WeatherHawk,2013-10-30 12:15:00,
2013-10-30 05:19:00,27.5,22.7,30.16,South,181,0.0,-999.0,82,0.00,,,0.00,1,WeatherHawk,2013-10-30 12:19:00,
2013-10-30 05:24:00,28.5,24.5,30.16,SW,223,0.0,-999.0,85,0.00,,,0.00,1,WeatherHawk,2013-10-30 12:24:00,
2013-10-30 05:30:00,27.9,23.9,30.16,WSW,252,0.0,-999.0,85,0.00,,,0.00,1,WeatherHawk,2013-10-30 12:30:00,
2013-10-30 05:34:00,28.7,25.3,30.16,WSW,252,0.0,-999.0,87,0.00,,,0.00,0,WeatherHawk,2013-10-30 12:34:00,
2013-10-30 05:40:00,28.0,25.2,30.16,SSE,168,0.0,-999.0,89,0.00,,,0.00,0,WeatherHawk,2013-10-30 12:40:00,
2013-10-30 05:44:00,29.1,26.6,30.16,West,274,0.0,-999.0,90,0.00,,,0.00,0,WeatherHawk,2013-10-30 12:44:00,
2013-10-30 05:50:00,31.7,27.4,30.16,West,271,4.0,-999.0,84,0.00,,,0.00,0,WeatherHawk,2013-10-30 12:50:00,
2013-10-30 05:54:00,29.1,24.3,30.16,NE,39,0.0,-999.0,82,0.00,,,0.00,0,WeatherHawk,2013-10-30 12:54:00,
2013-10-30 06:00:00,29.0,25.6,30.17,WNW,287,0.0,-999.0,87,0.00,,,0.00,0,WeatherHawk,2013-10-30 13:00:00,
2013-10-30 06:04:00,29.1,26.0,30.16,SSW,196,0.0,-999.0,88,0.00,,,0.00,0,WeatherHawk,2013-10-30 13:04:00,
2013-10-30 06:10:00,28.9,25.2,30.17,WNW,300,3.0,-999.0,86,0.00,,,0.00,1,WeatherHawk,2013-10-30 13:10:00,
2013-10-30 06:15:00,28.2,24.9,30.17,SSE,167,1.0,-999.0,87,0.00,,,0.00,0,WeatherHawk,2013-10-30 13:15:00,
2013-10-30 06:20:00,30.4,26.5,30.17,West,272,0.0,-999.0,85,0.00,,,0.00,0,WeatherHawk,2013-10-30 13:20:00,
2013-10-30 06:25:00,28.8,23.4,30.17,SSE,166,0.0,-999.0,80,0.00,,,0.00,0,WeatherHawk,2013-10-30 13:25:00,
2013-10-30 06:29:00,28.8,23.1,30.16,SSE,166,0.0,-999.0,79,0.00,,,0.00,0,WeatherHawk,2013-10-30 13:29:00,
2013-10-30 06:35:00,29.5,23.8,30.16,NW,308,0.0,-999.0,79,0.00,,,0.00,0,WeatherHawk,2013-10-30 13:35:00,
2013-10-30 06:39:00,29.0,23.6,30.17,SSE,150,0.0,-999.0,80,0.00,,,0.00,0,WeatherHawk,2013-10-30 13:39:00,
2013-10-30 06:45:00,30.9,27.0,30.17,SSE,149,9.0,-999.0,85,0.00,,,0.00,0,WeatherHawk,2013-10-30 13:45:00,
2013-10-30 06:50:00,29.0,24.2,30.16,NW,324,2.0,-999.0,82,0.00,,,0.00,1,WeatherHawk,2013-10-30 13:50:00,
2013-10-30 06:55:00,27.9,24.0,30.17,SSE,158,0.0,-999.0,85,0.00,,,0.00,0,WeatherHawk,2013-10-30 13:55:00,
2013-10-30 07:00:00,27.6,24.5,30.17,SSE,158,0.0,-999.0,88,0.00,,,0.00,0,WeatherHawk,2013-10-30 14:00:00,
2013-10-30 07:05:00,28.5,26.2,30.16,SSE,158,0.0,-999.0,91,0.00,,,0.00,0,WeatherHawk,2013-10-30 14:05:00,
2013-10-30 07:10:00,27.8,26.1,30.17,West,268,0.0,-999.0,93,0.00,,,0.00,0,WeatherHawk,2013-10-30 14:10:00,
2013-10-30 07:15:00,28.1,26.4,30.17,West,268,0.0,-999.0,93,0.00,,,0.00,0,WeatherHawk,2013-10-30 14:15:00,
2013-10-30 07:20:00,28.1,26.9,30.17,West,268,0.0,-999.0,95,0.00,,,0.00,0,WeatherHawk,2013-10-30 14:20:00,
2013-10-30 07:25:00,28.0,26.8,30.17,South,184,0.0,-999.0,95,0.00,,,0.00,0,WeatherHawk,2013-10-30 14:25:00,
2013-10-30 07:30:00,28.4,28.0,30.17,NNE,26,0.0,-999.0,98,0.00,,,0.00,1,WeatherHawk,2013-10-30 14:30:00,
2013-10-30 07:35:00,27.9,27.4,30.17,NNE,26,0.0,-999.0,98,0.00,,,0.00,2,WeatherHawk,2013-10-30 14:35:00,
2013-10-30 07:40:00,28.1,27.1,30.18,North,351,0.0,-999.0,96,0.00,,,0.00,3,WeatherHawk,2013-10-30 14:40:00,
2013-10-30 07:45:00,27.5,26.2,30.18,North,351,0.0,-999.0,95,0.00,,,0.00,4,WeatherHawk,2013-10-30 14:45:00,
2013-10-30 07:50:00,28.5,27.5,30.18,SSE,168,0.0,-999.0,96,0.00,,,0.00,8,WeatherHawk,2013-10-30 14:50:00,
2013-10-30 07:55:00,27.6,25.9,30.18,SSE,167,0.0,-999.0,93,0.00,,,0.00,11,WeatherHawk,2013-10-30 14:55:00,
2013-10-30 08:00:00,27.6,25.6,30.18,SSE,167,0.0,-999.0,92,0.00,,,0.00,10,WeatherHawk,2013-10-30 15:00:00,
2013-10-30 08:05:00,28.2,26.4,30.18,SSE,167,0.0,-999.0,93,0.00,,,0.00,12,WeatherHawk,2013-10-30 15:05:00,
2013-10-30 08:10:00,28.4,26.9,30.18,SE,140,0.0,-999.0,94,0.00,,,0.00,12,WeatherHawk,2013-10-30 15:10:00,
2013-10-30 08:15:00,29.9,27.3,30.18,SE,140,0.0,-999.0,90,0.00,,,0.00,15,WeatherHawk,2013-10-30 15:15:00,
2013-10-30 08:20:00,29.0,25.3,30.18,NNE,26,0.0,-999.0,86,0.00,,,0.00,17,WeatherHawk,2013-10-30 15:20:00,
2013-10-30 08:25:00,28.6,25.3,30.18,NNW,347,0.0,-999.0,87,0.00,,,0.00,19,WeatherHawk,2013-10-30 15:25:00,
2013-10-30 08:30:00,28.2,25.4,30.19,South,190,1.0,-999.0,89,0.00,,,0.00,18,WeatherHawk,2013-10-30 15:30:00,
2013-10-30 08:35:00,28.6,25.8,30.18,South,190,0.0,-999.0,89,0.00,,,0.00,24,WeatherHawk,2013-10-30 15:35:00,
2013-10-30 08:40:00,28.1,25.5,30.19,South,190,0.0,-999.0,90,0.00,,,0.00,30,WeatherHawk,2013-10-30 15:40:00,
2013-10-30 08:45:00,28.8,26.0,30.18,North,351,0.0,-999.0,89,0.00,,,0.00,30,WeatherHawk,2013-10-30 15:45:00,
2013-10-30 08:50:00,28.9,26.1,30.19,North,351,0.0,-999.0,89,0.00,,,0.00,39,WeatherHawk,2013-10-30 15:50:00,
2013-10-30 08:55:00,28.5,25.4,30.19,North,351,0.0,-999.0,88,0.00,,,0.00,39,WeatherHawk,2013-10-30 15:55:00,
2013-10-30 09:00:00,29.1,26.6,30.19,South,179,0.0,-999.0,90,0.00,,,0.00,42,WeatherHawk,2013-10-30 16:00:00,
2013-10-30 09:05:00,29.1,26.8,30.19,SW,216,0.0,-999.0,91,0.00,,,0.00,46,WeatherHawk,2013-10-30 16:05:00,
2013-10-30 09:10:00,29.3,27.0,30.19,SW,216,0.0,-999.0,91,0.00,,,0.00,51,WeatherHawk,2013-10-30 16:10:00,
2013-10-30 09:15:00,29.5,26.9,30.19,ESE,119,0.0,-999.0,90,0.00,,,0.00,61,WeatherHawk,2013-10-30 16:15:00,
2013-10-30 09:20:00,33.4,28.8,30.19,South,173,4.0,-999.0,83,0.00,,,0.00,159,WeatherHawk,2013-10-30 16:20:00,
2013-10-30 09:25:00,36.4,27.6,30.18,NW,304,0.0,-999.0,70,0.00,,,0.00,218,WeatherHawk,2013-10-30 16:25:00,
2013-10-30 09:30:00,33.3,20.1,30.18,WNW,289,2.0,-999.0,58,0.00,,,0.00,210,WeatherHawk,2013-10-30 16:30:00,
2013-10-30 09:35:00,31.7,17.8,30.18,West,268,3.0,-999.0,56,0.00,,,0.00,172,WeatherHawk,2013-10-30 16:35:00,
2013-10-30 09:40:00,36.7,23.3,30.18,SSE,151,1.0,-999.0,58,0.00,,,0.00,303,WeatherHawk,2013-10-30 16:40:00,
2013-10-30 09:45:00,37.0,20.1,30.18,SW,221,0.0,-999.0,50,0.00,,,0.00,125,WeatherHawk,2013-10-30 16:45:00,
2013-10-30 09:50:00,34.0,19.6,30.18,North,349,2.0,-999.0,55,0.00,,,0.00,100,WeatherHawk,2013-10-30 16:50:00,
2013-10-30 09:55:00,35.5,21.8,30.18,NE,47,0.0,-999.0,57,0.00,,,0.00,121,WeatherHawk,2013-10-30 16:55:00,
2013-10-30 10:00:00,35.8,19.9,30.18,ESE,111,0.0,-999.0,52,0.00,,,0.00,82,WeatherHawk,2013-10-30 17:00:00,
2013-10-30 10:05:00,35.3,20.3,30.18,West,270,0.0,-999.0,54,0.00,,,0.00,115,WeatherHawk,2013-10-30 17:05:00,
2013-10-30 10:10:00,38.5,19.0,30.18,South,182,4.0,-999.0,45,0.00,,,0.00,286,WeatherHawk,2013-10-30 17:10:00,
2013-10-30 10:15:00,37.5,17.6,30.18,South,185,7.0,-999.0,44,0.00,,,0.00,254,WeatherHawk,2013-10-30 17:15:00,
2013-10-30 10:20:00,39.3,18.7,30.18,South,189,7.0,-999.0,43,0.00,,,0.00,277,WeatherHawk,2013-10-30 17:20:00,
2013-10-30 10:25:00,40.2,18.4,30.18,SE,134,4.0,-999.0,41,0.00,,,0.00,302,WeatherHawk,2013-10-30 17:25:00,
2013-10-30 10:35:00,40.8,17.2,30.17,SSE,160,5.0,-999.0,38,0.00,,,0.00,317,WeatherHawk,2013-10-30 17:35:00,
2013-10-30 10:40:00,42.7,18.3,30.17,SE,127,2.0,-999.0,37,0.00,,,0.00,325,WeatherHawk,2013-10-30 17:40:00,
2013-10-30 10:45:00,40.9,14.8,30.18,ENE,73,1.0,-999.0,34,0.00,,,0.00,332,WeatherHawk,2013-10-30 17:45:00,
2013-10-30 10:50:00,40.6,14.5,30.17,South,189,7.0,-999.0,34,0.00,,,0.00,339,WeatherHawk,2013-10-30 17:50:00,
2013-10-30 10:55:00,41.7,14.8,30.17,South,178,4.0,-999.0,33,0.00,,,0.00,351,WeatherHawk,2013-10-30 17:55:00,
2013-10-30 11:00:00,39.8,14.4,30.17,NW,317,3.0,-999.0,35,0.00,,,0.00,377,WeatherHawk,2013-10-30 18:00:00,
2013-10-30 11:05:00,43.5,15.6,30.17,SSW,199,2.0,-999.0,32,0.00,,,0.00,398,WeatherHawk,2013-10-30 18:05:00,
2013-10-30 11:10:00,41.8,12.7,30.17,NNW,328,1.0,-999.0,30,0.00,,,0.00,334,WeatherHawk,2013-10-30 18:10:00,
2013-10-30 11:15:00,42.3,13.8,30.16,South,180,4.0,-999.0,31,0.00,,,0.00,178,WeatherHawk,2013-10-30 18:15:00,
2013-10-30 11:20:00,39.9,13.1,30.17,West,272,2.0,-999.0,33,0.00,,,0.00,190,WeatherHawk,2013-10-30 18:20:00,
2013-10-30 11:25:00,40.1,15.3,30.17,NE,36,3.0,-999.0,36,0.00,,,0.00,119,WeatherHawk,2013-10-30 18:25:00,
2013-10-30 11:30:00,46.4,18.9,30.17,SSW,194,5.0,-999.0,33,0.00,,,0.00,419,WeatherHawk,2013-10-30 18:30:00,
2013-10-30 11:35:00,45.0,16.2,30.17,SSE,149,7.0,-999.0,31,0.00,,,0.00,411,WeatherHawk,2013-10-30 18:35:00,
2013-10-30 11:40:00,46.8,16.3,30.17,SSE,161,5.0,-999.0,29,0.00,,,0.00,413,WeatherHawk,2013-10-30 18:40:00,
2013-10-30 11:45:00,46.1,14.0,30.16,South,184,5.0,-999.0,27,0.00,,,0.00,413,WeatherHawk,2013-10-30 18:45:00,
2013-10-30 11:50:00,49.4,16.9,30.16,SW,229,2.0,-999.0,27,0.00,,,0.00,422,WeatherHawk,2013-10-30 18:50:00,
2013-10-30 11:55:00,46.3,10.6,30.16,SSW,201,6.0,-999.0,23,0.00,,,0.00,440,WeatherHawk,2013-10-30 18:55:00,
2013-10-30 12:00:00,47.5,10.6,30.16,South,173,4.0,-999.0,22,0.00,,,0.00,436,WeatherHawk,2013-10-30 19:00:00,
2013-10-30 12:05:00,48.5,11.4,30.16,South,177,6.0,-999.0,22,0.00,,,0.00,510,WeatherHawk,2013-10-30 19:05:00,
2013-10-30 12:10:00,49.6,13.4,30.15,South,187,0.0,-999.0,23,0.00,,,0.00,251,WeatherHawk,2013-10-30 19:10:00,
2013-10-30 12:15:00,48.9,9.6,30.15,SSE,159,3.0,-999.0,20,0.00,,,0.00,406,WeatherHawk,2013-10-30 19:15:00,
2013-10-30 12:20:00,47.9,7.7,30.15,SSE,167,7.0,-999.0,19,0.00,,,0.00,405,WeatherHawk,2013-10-30 19:20:00,
2013-10-30 12:25:00,48.9,8.5,30.15,ESE,112,2.0,-999.0,19,0.00,,,0.00,406,WeatherHawk,2013-10-30 19:25:00,
2013-10-30 12:30:00,50.9,6.3,30.14,SSW,192,4.0,-999.0,16,0.00,,,0.00,407,WeatherHawk,2013-10-30 19:30:00,
2013-10-30 12:35:00,52.8,7.9,30.15,SSE,148,0.0,-999.0,16,0.00,,,0.00,402,WeatherHawk,2013-10-30 19:35:00,
2013-10-30 12:40:00,49.3,9.9,30.15,NNW,343,2.0,-999.0,20,0.00,,,0.00,269,WeatherHawk,2013-10-30 19:40:00,
2013-10-30 12:45:00,49.6,7.9,30.15,NE,39,5.0,-999.0,18,0.00,,,0.00,422,WeatherHawk,2013-10-30 19:45:00,
2013-10-30 12:50:00,49.5,11.2,30.15,NNE,18,5.0,-999.0,21,0.00,,,0.00,435,WeatherHawk,2013-10-30 19:50:00,
2013-10-30 12:55:00,50.3,10.7,30.14,NNW,346,5.0,-999.0,20,0.00,,,0.00,420,WeatherHawk,2013-10-30 19:55:00,
2013-10-30 13:00:00,50.5,8.6,30.13,North,0,2.0,-999.0,18,0.00,,,0.00,414,WeatherHawk,2013-10-30 20:00:00,
2013-10-30 13:05:00,50.6,-0.1,30.14,SSE,168,4.0,-999.0,12,0.00,,,0.00,430,WeatherHawk,2013-10-30 20:05:00,
2013-10-30 13:10:00,52.6,1.5,30.13,SSE,163,0.0,-999.0,12,0.00,,,0.00,356,WeatherHawk,2013-10-30 20:10:00,
2013-10-30 13:15:00,50.4,3.0,30.14,NNW,329,3.0,-999.0,14,0.00,,,0.00,174,WeatherHawk,2013-10-30 20:15:00,
2013-10-30 13:20:00,51.6,6.9,30.13,WSW,253,0.0,-999.0,16,0.00,,,0.00,416,WeatherHawk,2013-10-30 20:20:00,
2013-10-30 13:25:00,51.3,3.8,30.14,North,351,4.0,-999.0,14,0.00,,,0.00,431,WeatherHawk,2013-10-30 20:25:00,
2013-10-30 13:30:00,50.4,3.0,30.13,NNW,335,6.0,-999.0,14,0.00,,,0.00,453,WeatherHawk,2013-10-30 20:30:00,
2013-10-30 13:35:00,50.8,6.2,30.13,NE,35,5.0,-999.0,16,0.00,,,0.00,478,WeatherHawk,2013-10-30 20:35:00,
2013-10-30 13:40:00,50.9,6.4,30.13,North,0,4.0,-999.0,16,0.00,,,0.00,168,WeatherHawk,2013-10-30 20:40:00,
2013-10-30 13:45:00,50.9,6.4,30.13,NNE,25,4.0,-999.0,16,0.00,,,0.00,212,WeatherHawk,2013-10-30 20:45:00,
2013-10-30 13:50:00,50.1,4.3,30.13,NNE,31,4.0,-999.0,15,0.00,,,0.00,398,WeatherHawk,2013-10-30 20:50:00,
2013-10-30 13:55:00,51.8,2.6,30.13,NNE,30,5.0,-999.0,13,0.00,,,0.00,338,WeatherHawk,2013-10-30 20:55:00,
2013-10-30 14:00:00,52.1,4.4,30.13,NNW,346,4.0,-999.0,14,0.00,,,0.00,351,WeatherHawk,2013-10-30 21:00:00,
2013-10-30 14:05:00,52.4,6.2,30.13,NNE,15,5.0,-999.0,15,0.00,,,0.00,341,WeatherHawk,2013-10-30 21:05:00,
2013-10-30 14:10:00,53.9,8.7,30.12,NNE,23,3.0,-999.0,16,0.00,,,0.00,336,WeatherHawk,2013-10-30 21:10:00,
2013-10-30 14:15:00,53.1,5.2,30.12,NNE,12,6.0,-999.0,14,0.00,,,0.00,365,WeatherHawk,2013-10-30 21:15:00,
2013-10-30 14:20:00,53.0,6.6,30.12,NE,45,6.0,-999.0,15,0.00,,,0.00,365,WeatherHawk,2013-10-30 21:20:00,
2013-10-30 14:25:00,51.6,4.0,30.12,NE,44,6.0,-999.0,14,0.00,,,0.00,183,WeatherHawk,2013-10-30 21:25:00,
2013-10-30 14:30:00,52.0,4.3,30.13,NNE,24,5.0,-999.0,14,0.00,,,0.00,162,WeatherHawk,2013-10-30 21:30:00,
2013-10-30 14:35:00,52.6,9.1,30.13,NE,36,4.0,-999.0,17,0.00,,,0.00,247,WeatherHawk,2013-10-30 21:35:00,
2013-10-30 14:40:00,52.7,6.4,30.13,NNE,33,4.0,-999.0,15,0.00,,,0.00,242,WeatherHawk,2013-10-30 21:40:00,
2013-10-30 14:45:00,52.5,6.2,30.13,NE,43,6.0,-999.0,15,0.00,,,0.00,207,WeatherHawk,2013-10-30 21:45:00,
2013-10-30 14:55:00,54.6,6.4,30.13,NNE,25,3.0,-999.0,14,0.00,,,0.00,327,WeatherHawk,2013-10-30 21:55:00,
2013-10-30 15:05:00,53.8,0.6,30.13,NE,54,4.0,-999.0,11,0.00,,,0.00,296,WeatherHawk,2013-10-30 22:05:00,
2013-10-30 15:10:00,53.3,-1.9,30.13,ENE,64,5.0,-999.0,10,0.00,,,0.00,251,WeatherHawk,2013-10-30 22:10:00,
2013-10-30 15:15:00,54.0,0.7,30.13,NE,41,5.0,-999.0,11,0.00,,,0.00,262,WeatherHawk,2013-10-30 22:15:00,
2013-10-30 15:20:00,54.2,6.0,30.13,ENE,74,3.0,-999.0,14,0.00,,,0.00,275,WeatherHawk,2013-10-30 22:20:00,
2013-10-30 15:25:00,54.3,1.0,30.12,NE,55,5.0,-999.0,11,0.00,,,0.00,270,WeatherHawk,2013-10-30 22:25:00,
2013-10-30 15:30:00,53.8,-1.5,30.13,NE,47,5.0,-999.0,10,0.00,,,0.00,175,WeatherHawk,2013-10-30 22:30:00,
2013-10-30 15:40:00,54.2,2.7,30.13,ENE,59,2.0,-999.0,12,0.00,,,0.00,58,WeatherHawk,2013-10-30 22:40:00,
2013-10-30 15:45:00,53.6,0.4,30.13,East,91,5.0,-999.0,11,0.00,,,0.00,44,WeatherHawk,2013-10-30 22:45:00,
2013-10-30 15:50:00,53.8,2.4,30.13,ENE,71,0.0,-999.0,12,0.00,,,0.00,239,WeatherHawk,2013-10-30 22:50:00,
2013-10-30 15:55:00,55.6,2.0,30.13,North,9,4.0,-999.0,11,0.00,,,0.00,221,WeatherHawk,2013-10-30 22:55:00,
2013-10-30 16:00:00,54.6,-3.0,30.13,NE,45,3.0,-999.0,9,0.00,,,0.00,217,WeatherHawk,2013-10-30 23:00:00,
2013-10-30 16:05:00,54.7,-5.4,30.13,North,4,0.0,-999.0,8,0.00,,,0.00,89,WeatherHawk,2013-10-30 23:05:00,
2013-10-30 16:10:00,54.2,0.9,30.13,NE,48,3.0,-999.0,11,0.00,,,0.00,73,WeatherHawk,2013-10-30 23:10:00,
2013-10-30 16:15:00,54.1,-1.2,30.13,ENE,77,3.0,-999.0,10,0.00,,,0.00,61,WeatherHawk,2013-10-30 23:15:00,
2013-10-30 16:20:00,54.1,0.8,30.14,ENE,71,3.0,-999.0,11,0.00,,,0.00,56,WeatherHawk,2013-10-30 23:20:00,
2013-10-30 16:25:00,53.9,2.5,30.14,ENE,60,3.0,-999.0,12,0.00,,,0.00,58,WeatherHawk,2013-10-30 23:25:00,
2013-10-30 16:30:00,53.9,0.7,30.13,East,88,2.0,-999.0,11,0.00,,,0.00,79,WeatherHawk,2013-10-30 23:30:00,
2013-10-30 16:35:00,54.2,2.7,30.14,ENE,68,3.0,-999.0,12,0.00,,,0.00,171,WeatherHawk,2013-10-30 23:35:00,
2013-10-30 16:40:00,54.8,3.2,30.14,NE,38,0.0,-999.0,12,0.00,,,0.00,117,WeatherHawk,2013-10-30 23:40:00,
2013-10-30 16:45:00,54.3,-1.1,30.14,ENE,71,4.0,-999.0,10,0.00,,,0.00,120,WeatherHawk,2013-10-30 23:45:00,
2013-10-30 16:50:00,54.0,2.6,30.13,ENE,64,0.0,-999.0,12,0.00,,,0.00,40,WeatherHawk,2013-10-30 23:50:00,
2013-10-30 16:55:00,53.6,0.4,30.14,ENE,66,3.0,-999.0,11,0.00,,,0.00,49,WeatherHawk,2013-10-30 23:55:00,
2013-10-30 17:00:00,53.4,0.2,30.14,ENE,68,0.0,-999.0,11,0.00,,,0.00,42,WeatherHawk,2013-10-31 00:00:00,
2013-10-30 17:05:00,53.1,3.6,30.14,ENE,77,2.0,-999.0,13,0.00,,,0.00,41,WeatherHawk,2013-10-31 00:05:00,
2013-10-30 17:10:00,53.1,5.2,30.14,ESE,122,3.0,-999.0,14,0.00,,,0.00,39,WeatherHawk,2013-10-31 00:10:00,
2013-10-30 17:15:00,53.6,4.0,30.14,ESE,104,3.0,-999.0,13,0.00,,,0.00,88,WeatherHawk,2013-10-31 00:15:00,
2013-10-30 17:20:00,54.0,7.4,30.15,ESE,105,0.0,-999.0,15,0.00,,,0.00,78,WeatherHawk,2013-10-31 00:20:00,
2013-10-30 17:25:00,54.0,4.3,30.14,ENE,78,3.0,-999.0,13,0.00,,,0.00,63,WeatherHawk,2013-10-31 00:25:00,
2013-10-30 17:30:00,53.7,4.1,30.14,ENE,62,0.0,-999.0,13,0.00,,,0.00,27,WeatherHawk,2013-10-31 00:30:00,
2013-10-30 17:35:00,53.1,5.2,30.14,ENE,70,0.0,-999.0,14,0.00,,,0.00,24,WeatherHawk,2013-10-31 00:35:00,
2013-10-30 17:40:00,52.9,5.0,30.13,SSE,151,2.0,-999.0,14,0.00,,,0.00,17,WeatherHawk,2013-10-31 00:40:00,
2013-10-30 17:45:00,52.7,9.2,30.14,SE,136,3.0,-999.0,17,0.00,,,0.00,15,WeatherHawk,2013-10-31 00:45:00,
2013-10-30 17:50:00,52.5,6.2,30.14,SE,136,3.0,-999.0,15,0.00,,,0.00,8,WeatherHawk,2013-10-31 00:50:00,
2013-10-30 17:55:00,51.9,9.8,30.14,SE,136,3.0,-999.0,18,0.00,,,0.00,5,WeatherHawk,2013-10-31 00:55:00,
2013-10-30 18:00:00,52.2,8.7,30.15,SE,136,3.0,-999.0,17,0.00,,,0.00,4,WeatherHawk,2013-10-31 01:00:00,
2013-10-30 18:05:00,51.4,11.7,30.14,SE,142,4.0,-999.0,20,0.00,,,0.00,0,WeatherHawk,2013-10-31 01:05:00,
2013-10-30 18:10:00,50.9,12.4,30.14,SE,139,4.0,-999.0,21,0.00,,,0.00,1,WeatherHawk,2013-10-31 01:10:00,
2013-10-30 18:15:00,51.5,12.9,30.15,SE,137,4.0,-999.0,21,0.00,,,0.00,0,WeatherHawk,2013-10-31 01:15:00,
2013-10-30 18:20:00,50.4,12.0,30.15,SE,139,3.0,-999.0,21,0.00,,,0.00,0,WeatherHawk,2013-10-31 01:20:00,
2013-10-30 18:25:00,51.2,12.6,30.15,SE,132,4.0,-999.0,21,0.00,,,0.00,0,WeatherHawk,2013-10-31 01:25:00,
2013-10-30 18:30:00,51.8,10.9,30.15,SE,132,3.0,-999.0,19,0.00,,,0.00,0,WeatherHawk,2013-10-31 01:30:00,
2013-10-30 18:35:00,49.6,10.2,30.16,SE,138,3.0,-999.0,20,0.00,,,0.00,0,WeatherHawk,2013-10-31 01:35:00,
2013-10-30 18:40:00,49.2,13.0,30.16,SE,136,3.0,-999.0,23,0.00,,,0.00,0,WeatherHawk,2013-10-31 01:40:00,
2013-10-30 18:45:00,50.4,13.0,30.16,SE,142,3.0,-999.0,22,0.00,,,0.00,0,WeatherHawk,2013-10-31 01:45:00,
2013-10-30 18:50:00,49.7,13.4,30.16,SE,125,3.0,-999.0,23,0.00,,,0.00,0,WeatherHawk,2013-10-31 01:50:00,
2013-10-30 18:55:00,49.2,12.0,30.16,SE,142,2.0,-999.0,22,0.00,,,0.00,0,WeatherHawk,2013-10-31 01:55:00,
2013-10-30 19:00:00,50.7,14.3,30.17,ESE,121,2.0,-999.0,23,0.00,,,0.00,0,WeatherHawk,2013-10-31 02:00:00,
2013-10-30 19:05:00,48.9,11.7,30.16,SE,135,0.0,-999.0,22,0.00,,,0.00,1,WeatherHawk,2013-10-31 02:05:00,
2013-10-30 19:10:00,49.6,12.3,30.17,SSE,157,3.0,-999.0,22,0.00,,,0.00,0,WeatherHawk,2013-10-31 02:10:00,
2013-10-30 19:15:00,49.9,13.6,30.17,SE,143,4.0,-999.0,23,0.00,,,0.00,0,WeatherHawk,2013-10-31 02:15:00,
2013-10-30 19:20:00,50.4,14.0,30.17,SE,141,4.0,-999.0,23,0.00,,,0.00,0,WeatherHawk,2013-10-31 02:20:00,
2013-10-30 19:25:00,50.3,13.9,30.17,SSE,159,4.0,-999.0,23,0.00,,,0.00,1,WeatherHawk,2013-10-31 02:25:00,
2013-10-30 19:30:00,49.7,12.5,30.17,SE,138,5.0,-999.0,22,0.00,,,0.00,0,WeatherHawk,2013-10-31 02:30:00,
2013-10-30 19:35:00,50.4,11.9,30.17,SE,143,4.0,-999.0,21,0.00,,,0.00,0,WeatherHawk,2013-10-31 02:35:00,
2013-10-30 19:40:00,49.7,13.4,30.17,SSE,161,4.0,-999.0,23,0.00,,,0.00,0,WeatherHawk,2013-10-31 02:40:00,
2013-10-30 19:45:00,47.3,17.4,30.17,West,265,0.0,-999.0,30,0.00,,,0.00,2,WeatherHawk,2013-10-31 02:45:00,
2013-10-30 19:50:00,47.8,20.8,30.17,ESE,118,3.0,-999.0,34,0.00,,,0.00,0,WeatherHawk,2013-10-31 02:50:00,
2013-10-30 19:55:00,47.4,17.6,30.17,ESE,118,0.0,-999.0,30,0.00,,,0.00,1,WeatherHawk,2013-10-31 02:55:00,
2013-10-30 20:00:00,46.5,18.3,30.17,SW,227,0.0,-999.0,32,0.00,,,0.00,0,WeatherHawk,2013-10-31 03:00:00,
2013-10-30 20:05:00,47.0,19.4,30.17,SSE,156,0.0,-999.0,33,0.00,,,0.00,0,WeatherHawk,2013-10-31 03:05:00,
2013-10-30 20:10:00,46.5,21.0,30.17,SSE,156,0.0,-999.0,36,0.00,,,0.00,0,WeatherHawk,2013-10-31 03:10:00,
2013-10-30 20:15:00,46.6,21.7,30.17,SSE,156,0.0,-999.0,37,0.00,,,0.00,0,WeatherHawk,2013-10-31 03:15:00,
2013-10-30 20:20:00,48.3,23.8,30.17,SSE,156,0.0,-999.0,38,0.00,,,0.00,0,WeatherHawk,2013-10-31 03:20:00,
2013-10-30 20:25:00,45.7,21.6,30.17,West,263,0.0,-999.0,38,0.00,,,0.00,0,WeatherHawk,2013-10-31 03:25:00,
2013-10-30 20:30:00,47.3,23.6,30.18,SE,134,2.0,-999.0,39,0.00,,,0.00,0,WeatherHawk,2013-10-31 03:30:00,
2013-10-30 20:35:00,46.6,21.8,30.17,SE,134,0.0,-999.0,37,0.00,,,0.00,0,WeatherHawk,2013-10-31 03:35:00,
2013-10-30 20:40:00,45.2,22.4,30.17,North,8,0.0,-999.0,40,0.00,,,0.00,0,WeatherHawk,2013-10-31 03:40:00,
2013-10-30 20:45:00,47.3,23.0,30.18,SSE,158,0.0,-999.0,38,0.00,,,0.00,0,WeatherHawk,2013-10-31 03:45:00,
2013-10-30 20:50:00,46.7,22.5,30.17,NNE,29,0.0,-999.0,38,0.00,,,0.00,0,WeatherHawk,2013-10-31 03:50:00,
2013-10-30 20:55:00,44.6,21.8,30.17,South,181,0.0,-999.0,40,0.00,,,0.00,0,WeatherHawk,2013-10-31 03:55:00,
2013-10-30 21:00:00,45.0,23.3,30.18,SSE,150,0.0,-999.0,42,0.00,,,0.00,0,WeatherHawk,2013-10-31 04:00:00,
2013-10-30 21:05:00,46.3,23.3,30.18,SE,136,0.0,-999.0,40,0.00,,,0.00,0,WeatherHawk,2013-10-31 04:05:00,
2013-10-30 21:10:00,45.5,23.7,30.18,SE,136,0.0,-999.0,42,0.00,,,0.00,0,WeatherHawk,2013-10-31 04:10:00,
2013-10-30 21:15:00,45.4,23.6,30.18,SE,136,0.0,-999.0,42,0.00,,,0.00,0,WeatherHawk,2013-10-31 04:15:00,
2013-10-30 21:20:00,46.1,24.3,30.18,SSE,162,0.0,-999.0,42,0.00,,,0.00,0,WeatherHawk,2013-10-31 04:20:00,
2013-10-30 21:25:00,44.7,23.6,30.18,North,7,0.0,-999.0,43,0.00,,,0.00,0,WeatherHawk,2013-10-31 04:25:00,
2013-10-30 21:30:00,44.8,24.2,30.18,South,171,0.0,-999.0,44,0.00,,,0.00,0,WeatherHawk,2013-10-31 04:30:00,
2013-10-30 21:35:00,45.6,23.8,30.18,South,171,0.0,-999.0,42,0.00,,,0.00,0,WeatherHawk,2013-10-31 04:35:00,
2013-10-30 21:40:00,44.6,23.0,30.18,SSE,155,0.0,-999.0,42,0.00,,,0.00,0,WeatherHawk,2013-10-31 04:40:00,
2013-10-30 21:45:00,44.6,22.9,30.18,SSE,155,0.0,-999.0,42,0.00,,,0.00,0,WeatherHawk,2013-10-31 04:45:00,
2013-10-30 21:50:00,44.1,23.0,30.18,SSE,155,2.0,-999.0,43,0.00,,,0.00,0,WeatherHawk,2013-10-31 04:50:00,
2013-10-30 21:55:00,43.0,23.6,30.18,North,351,0.0,-999.0,46,0.00,,,0.00,0,WeatherHawk,2013-10-31 04:55:00,
2013-10-30 22:00:00,42.5,25.6,30.18,South,176,0.0,-999.0,51,0.00,,,0.00,0,WeatherHawk,2013-10-31 05:00:00,
2013-10-30 22:05:00,42.9,25.6,30.18,South,176,0.0,-999.0,50,0.00,,,0.00,0,WeatherHawk,2013-10-31 05:05:00,
2013-10-30 22:10:00,43.5,25.1,30.18,North,5,0.0,-999.0,48,0.00,,,0.00,0,WeatherHawk,2013-10-31 05:10:00,
2013-10-30 22:15:00,44.1,24.6,30.18,ESE,117,0.0,-999.0,46,0.00,,,0.00,0,WeatherHawk,2013-10-31 05:15:00,
2013-10-30 22:20:00,42.4,24.6,30.18,North,1,0.0,-999.0,49,0.00,,,0.00,1,WeatherHawk,2013-10-31 05:20:00,
2013-10-30 22:25:00,43.5,25.7,30.18,SE,128,4.0,-999.0,49,0.00,,,0.00,1,WeatherHawk,2013-10-31 05:25:00,
2013-10-30 22:30:00,42.9,23.5,30.18,WSW,258,0.0,-999.0,46,0.00,,,0.00,0,WeatherHawk,2013-10-31 05:30:00,
2013-10-30 22:35:00,43.5,24.1,30.18,SSW,193,0.0,-999.0,46,0.00,,,0.00,0,WeatherHawk,2013-10-31 05:35:00,
2013-10-30 22:40:00,42.6,23.3,30.18,West,280,0.0,-999.0,46,0.00,,,0.00,0,WeatherHawk,2013-10-31 05:40:00,
2013-10-30 22:45:00,43.2,24.8,30.18,East,91,0.0,-999.0,48,0.00,,,0.00,0,WeatherHawk,2013-10-31 05:45:00,
2013-10-30 22:50:00,43.9,25.5,30.18,ESE,112,2.0,-999.0,48,0.00,,,0.00,0,WeatherHawk,2013-10-31 05:50:00,
2013-10-30 22:55:00,43.1,24.2,30.18,ESE,114,0.0,-999.0,47,0.00,,,0.00,0,WeatherHawk,2013-10-31 05:55:00,
2013-10-30 23:00:00,43.3,22.3,30.17,ESE,123,4.0,-999.0,43,0.00,,,0.00,0,WeatherHawk,2013-10-31 06:00:00,
2013-10-30 23:05:00,42.3,21.4,30.18,NNW,348,0.0,-999.0,43,0.00,,,0.00,0,WeatherHawk,2013-10-31 06:05:00,
2013-10-30 23:10:00,41.3,23.6,30.18,NW,322,0.0,-999.0,49,0.00,,,0.00,0,WeatherHawk,2013-10-31 06:10:00,
2013-10-30 23:15:00,44.0,25.5,30.18,SE,131,2.0,-999.0,48,0.00,,,0.00,0,WeatherHawk,2013-10-31 06:15:00,
2013-10-30 23:20:00,45.0,22.2,30.18,South,173,2.0,-999.0,40,0.00,,,0.00,0,WeatherHawk,2013-10-31 06:20:00,
2013-10-30 23:25:00,43.6,22.6,30.17,South,184,2.0,-999.0,43,0.00,,,0.00,0,WeatherHawk,2013-10-31 06:25:00,
2013-10-30 23:30:00,43.3,22.9,30.17,SSW,205,0.0,-999.0,44,0.00,,,0.00,0,WeatherHawk,2013-10-31 06:30:00,
2013-10-30 23:35:00,42.5,23.7,30.17,WSW,244,0.0,-999.0,47,0.00,,,0.00,0,WeatherHawk,2013-10-31 06:35:00,
2013-10-30 23:40:00,43.1,23.2,30.17,SW,233,0.0,-999.0,45,0.00,,,0.00,0,WeatherHawk,2013-10-31 06:40:00,
2013-10-30 23:45:00,41.5,27.0,30.18,NW,311,0.0,-999.0,56,0.00,,,0.00,0,WeatherHawk,2013-10-31 06:45:00,
2013-10-30 23:50:00,40.7,27.1,30.17,NW,311,0.0,-999.0,58,0.00,,,0.00,0,WeatherHawk,2013-10-31 06:50:00,
2013-10-30 23:55:00,41.6,28.0,30.18,SE,144,0.0,-999.0,58,0.00,,,0.00,0,WeatherHawk,2013-10-31 06:55:00,